Solyaris — UCGX — position and weather

sailwx.info

Track history (hours):
 
Tides and Currents Weather Stations Pressure Air Temp Water Temp Dewpoint Dewpoint Depression Visibility Wind Speed Wind Dir Waves Ship Positions

Solyaris

Last reported at 2018-Jun-25 11:31 UTC. Time now 2018-Jun-25 11:29 UTC.
Position N 59°43' E 028°23'.

Length 12 m; draft 0.8 m.

Type: Law enforcement. MMSI: 273389370.

Date/timePositionNaut miles runAvg speedWind from/ knotsBaromVisibWave heightAir tempDewpointWater temp
2018-Jun-25 11:31N 59°43' E 028°23'0 0.2
2018-Jun-25 11:01N 59°43' E 028°23'0 1.0
2018-Jun-25 10:31N 59°44' E 028°24'0 0.5
2018-Jun-25 10:01N 59°44' E 028°24'0 0.5
2018-Jun-25 09:28N 59°44' E 028°24'1 2.5
2018-Jun-25 09:00N 59°43' E 028°23'3 5.1
2018-Jun-25 08:28N 59°41' E 028°25'3 5.7
2018-Jun-25 08:00N 59°42' E 028°20'9144945.9
2018-Jun-25 07:49N 45°19' E 036°33'3 7.5
2018-Jun-25 07:29N 45°20' E 036°36'91225071.3
2018-Jun-25 07:27N 59°40' E 028°18'9112070.0
2018-Jun-25 07:00N 45°22' E 036°40'  
2018-Jun-21 13:04N 59°40' E 028°18'0 0.1
2018-Jun-21 12:59N 59°40' E 028°18'3 7.1
2018-Jun-21 12:30N 59°42' E 028°24'1 2.2
2018-Jun-21 11:56N 59°41' E 028°25'0 0.8
2018-Jun-21 11:30N 59°41' E 028°25'1 1.7
2018-Jun-21 11:00N 59°41' E 028°23'0 0.3
2018-Jun-21 10:30N 59°41' E 028°23'0 0.4
2018-Jun-21 10:00N 59°40' E 028°23'0 0.6
2018-Jun-21 09:30N 59°40' E 028°23'1 1.3
2018-Jun-21 09:00N 59°41' E 028°24'1 2.1
2018-Jun-21 08:30N 59°41' E 028°25'2 4.9
2018-Jun-21 08:00N 59°42' E 028°20'907101.7
2018-Jun-20 23:05N 45°28' E 036°46'1 7.7
2018-Jun-20 22:57N 45°28' E 036°44'3 7.1
2018-Jun-20 22:30N 45°25' E 036°41'4 7.5
2018-Jun-20 21:59N 45°22' E 036°39'4 7.7
2018-Jun-20 21:29N 45°20' E 036°35'5 6.9
2018-Jun-20 20:48N 45°17' E 036°29'9 1.1
2018-Jun-20 12:49N 45°09' E 036°34'92233.7
2018-Jun-19 09:29N 59°40' E 028°18'2 4.0
2018-Jun-19 09:00N 59°42' E 028°20'2 4.9
2018-Jun-19 08:30N 59°41' E 028°25'0 0.7
2018-Jun-19 08:00N 59°42' E 028°25'9153680.3
2018-Jun-19 07:45N 45°15' E 036°28'9153683.9
2018-Jun-19 07:31N 59°41' E 028°25'913469727.9
2018-Jun-19 07:30N 45°17' E 036°29'9131828.3
2018-Jun-19 07:00N 59°41' E 028°25'91132480.4
2018-Jun-19 06:59N 45°19' E 036°32'3 7.0
2018-Jun-19 06:30N 45°20' E 036°36'913469475.5
2018-Jun-19 06:30N 59°42' E 028°20'9121832.7
2018-Jun-19 06:01N 45°22' E 036°40'9116991.2
2018-Jun-19 05:53N 59°40' E 028°18'9082440.7
2018-Jun-19 05:30N 45°25' E 036°40'3 6.4
2018-Jun-19 04:59N 45°29' E 036°39'90475.2
2018-Jun-18 16:58N 59°40' E 028°18'0 0.0
2018-Jun-18 16:28N 59°40' E 028°18'0 0.0
2018-Jun-18 15:46N 59°40' E 028°18'1 3.4
2018-Jun-18 15:30N 59°41' E 028°19'3 5.7
2018-Jun-18 15:00N 59°41' E 028°24'0 0.3
2018-Jun-18 14:28N 59°41' E 028°24'4 8.8
2018-Jun-18 14:00N 59°45' E 028°23'2 3.1
2018-Jun-18 13:30N 59°46' E 028°21'0 0.3
2018-Jun-18 13:01N 59°46' E 028°21'0 0.5
2018-Jun-18 12:31N 59°46' E 028°20'2 3.1
2018-Jun-18 12:00N 59°45' E 028°23'4 8.6
2018-Jun-18 11:30N 59°41' E 028°25'1 1.3
2018-Jun-18 11:00N 59°41' E 028°25'1 3.0
2018-Jun-18 10:30N 59°42' E 028°24'3 5.1
2018-Jun-18 10:00N 59°42' E 028°19'90418.6
2018-Jun-16 09:22N 45°29' E 036°37'0 0.0
2018-Jun-16 09:00N 45°29' E 036°37'0 0.0
2018-Jun-16 08:19N 45°29' E 036°37'0 0.0
2018-Jun-16 05:22N 45°29' E 036°37'0 0.0
2018-Jun-16 04:56N 45°29' E 036°37'  
Track history (hours):
 
Tides and Currents Weather Stations Pressure Air Temp Water Temp Dewpoint Dewpoint Depression Visibility Wind Speed Wind Dir Waves Ship Positions

Solyaris

Last reported at 2018-Jun-25 11:31 UTC. Time now 2018-Jun-25 11:30 UTC.
Position N 59°43' E 028°23'.

Length 12 m; draft 0.8 m.

Type: Law enforcement. MMSI: 273389370.

Date/timePositionNaut miles runAvg speedWind from/ knotsBaromVisibWave heightAir tempDewpointWater temp
2018-Jun-25 11:31N 59°43' E 028°23'0 0.2
2018-Jun-25 11:01N 59°43' E 028°23'0 1.0
2018-Jun-25 10:31N 59°44' E 028°24'0 0.5
2018-Jun-25 10:01N 59°44' E 028°24'0 0.5
2018-Jun-25 09:28N 59°44' E 028°24'1 2.5
2018-Jun-25 09:00N 59°43' E 028°23'3 5.1
2018-Jun-25 08:28N 59°41' E 028°25'3 5.7
2018-Jun-25 08:00N 59°42' E 028°20'9144945.9
2018-Jun-25 07:49N 45°19' E 036°33'3 7.5
2018-Jun-25 07:29N 45°20' E 036°36'91225071.3
2018-Jun-25 07:27N 59°40' E 028°18'9112070.0
2018-Jun-25 07:00N 45°22' E 036°40'  
2018-Jun-21 13:04N 59°40' E 028°18'0 0.1
2018-Jun-21 12:59N 59°40' E 028°18'3 7.1
2018-Jun-21 12:30N 59°42' E 028°24'1 2.2
2018-Jun-21 11:56N 59°41' E 028°25'0 0.8
2018-Jun-21 11:30N 59°41' E 028°25'1 1.7
2018-Jun-21 11:00N 59°41' E 028°23'0 0.3
2018-Jun-21 10:30N 59°41' E 028°23'0 0.4
2018-Jun-21 10:00N 59°40' E 028°23'0 0.6
2018-Jun-21 09:30N 59°40' E 028°23'1 1.3
2018-Jun-21 09:00N 59°41' E 028°24'1 2.1
2018-Jun-21 08:30N 59°41' E 028°25'2 4.9
2018-Jun-21 08:00N 59°42' E 028°20'907101.7
2018-Jun-20 23:05N 45°28' E 036°46'1 7.7
2018-Jun-20 22:57N 45°28' E 036°44'3 7.1
2018-Jun-20 22:30N 45°25' E 036°41'4 7.5
2018-Jun-20 21:59N 45°22' E 036°39'4 7.7
2018-Jun-20 21:29N 45°20' E 036°35'5 6.9
2018-Jun-20 20:48N 45°17' E 036°29'9 1.1
2018-Jun-20 12:49N 45°09' E 036°34'92233.7
2018-Jun-19 09:29N 59°40' E 028°18'2 4.0
2018-Jun-19 09:00N 59°42' E 028°20'2 4.9
2018-Jun-19 08:30N 59°41' E 028°25'0 0.7
2018-Jun-19 08:00N 59°42' E 028°25'9153680.3
2018-Jun-19 07:45N 45°15' E 036°28'9153683.9
2018-Jun-19 07:31N 59°41' E 028°25'913469727.9
2018-Jun-19 07:30N 45°17' E 036°29'9131828.3
2018-Jun-19 07:00N 59°41' E 028°25'91132480.4
2018-Jun-19 06:59N 45°19' E 036°32'3 7.0
2018-Jun-19 06:30N 45°20' E 036°36'913469475.5
2018-Jun-19 06:30N 59°42' E 028°20'9121832.7
2018-Jun-19 06:01N 45°22' E 036°40'9116991.2
2018-Jun-19 05:53N 59°40' E 028°18'9082440.7
2018-Jun-19 05:30N 45°25' E 036°40'3 6.4
2018-Jun-19 04:59N 45°29' E 036°39'90475.2
2018-Jun-18 16:58N 59°40' E 028°18'0 0.0
2018-Jun-18 16:28N 59°40' E 028°18'0 0.0
2018-Jun-18 15:46N 59°40' E 028°18'1 3.4
2018-Jun-18 15:30N 59°41' E 028°19'3 5.7
2018-Jun-18 15:00N 59°41' E 028°24'0 0.3
2018-Jun-18 14:28N 59°41' E 028°24'4 8.8
2018-Jun-18 14:00N 59°45' E 028°23'2 3.1
2018-Jun-18 13:30N 59°46' E 028°21'0 0.3
2018-Jun-18 13:01N 59°46' E 028°21'0 0.5
2018-Jun-18 12:31N 59°46' E 028°20'2 3.1
2018-Jun-18 12:00N 59°45' E 028°23'4 8.6
2018-Jun-18 11:30N 59°41' E 028°25'1 1.3
2018-Jun-18 11:00N 59°41' E 028°25'1 3.0
2018-Jun-18 10:30N 59°42' E 028°24'3 5.1
2018-Jun-18 10:00N 59°42' E 028°19'90418.6
2018-Jun-16 09:22N 45°29' E 036°37'0 0.0
2018-Jun-16 09:00N 45°29' E 036°37'0 0.0
2018-Jun-16 08:19N 45°29' E 036°37'0 0.0
2018-Jun-16 05:22N 45°29' E 036°37'0 0.0
2018-Jun-16 04:56N 45°29' E 036°37'  

Dump ship's entire track history